createdAt,value
2022-09-17T00:00:59.170Z,4.23
2022-09-17T00:03:28.241Z,5.10
2022-09-17T00:06:02.548Z,4.27
2022-09-17T00:08:30.798Z,4.37
2022-09-17T00:10:59.018Z,5.03
2022-09-17T00:13:27.452Z,4.90
2022-09-17T00:15:55.665Z,4.40
2022-09-17T00:18:23.916Z,4.70
2022-09-17T00:20:52.142Z,3.90
2022-09-17T00:23:21.668Z,4.30
2022-09-17T00:25:49.825Z,4.67
2022-09-17T00:28:18.058Z,4.33
2022-09-17T00:30:47.099Z,3.90
2022-09-17T00:33:16.060Z,3.63
2022-09-17T00:35:44.511Z,4.00
2022-09-17T00:38:12.792Z,3.83
2022-09-17T00:40:42.290Z,4.00
2022-09-17T00:43:12.611Z,3.37
2022-09-17T00:45:40.792Z,3.67
2022-09-17T00:48:09.132Z,4.27
2022-09-17T00:50:40.310Z,3.93
2022-09-17T00:53:10.722Z,3.40
2022-09-17T00:55:40.614Z,3.30
2022-09-17T00:58:12.485Z,4.60
2022-09-17T01:00:42.773Z,3.63
2022-09-17T01:03:10.982Z,3.13
2022-09-17T01:05:43.572Z,4.60
2022-09-17T01:08:17.149Z,4.03
2022-09-17T01:11:09.138Z,4.20
2022-09-17T01:13:45.544Z,4.00
2022-09-17T01:16:19.720Z,5.03
2022-09-17T01:18:52.929Z,4.13
2022-09-17T01:21:35.984Z,3.67
2022-09-17T01:24:18.101Z,4.60
2022-09-17T01:27:02.509Z,4.33
2022-09-17T01:29:38.516Z,3.80
2022-09-17T01:32:10.683Z,4.60
2022-09-17T01:34:43.816Z,5.20
2022-09-17T01:37:15.880Z,5.13
2022-09-17T01:39:48.020Z,4.30
2022-09-17T01:42:18.863Z,3.20
2022-09-17T01:44:52.285Z,3.93
2022-09-17T01:47:23.414Z,3.23
2022-09-17T01:49:53.474Z,4.60
2022-09-17T01:52:22.187Z,3.60
2022-09-17T01:54:53.005Z,4.13
2022-09-17T01:57:23.977Z,2.87
2022-09-17T01:59:54.171Z,4.00
2022-09-17T02:02:28.604Z,3.37
2022-09-17T02:04:59.595Z,5.33
2022-09-17T02:07:29.342Z,4.63
2022-09-17T02:10:00.574Z,4.43
2022-09-17T02:12:31.302Z,5.63
2022-09-17T02:15:01.574Z,4.70
2022-09-17T02:17:33.029Z,5.80
2022-09-17T02:20:02.453Z,4.90
2022-09-17T02:22:33.685Z,3.60
2022-09-17T02:25:05.248Z,6.13
2022-09-17T02:27:38.991Z,5.20
2022-09-17T02:30:07.944Z,5.67
2022-09-17T02:32:37.520Z,5.80
2022-09-17T02:35:07.588Z,4.27
2022-09-17T02:37:35.949Z,5.47
2022-09-17T02:40:04.907Z,6.43
2022-09-17T02:42:35.559Z,4.90
2022-09-17T02:45:07.374Z,4.63
2022-09-17T02:47:49.965Z,5.57
2022-09-17T02:50:27.114Z,4.80
2022-09-17T02:53:00.779Z,7.43
2022-09-17T02:55:33.747Z,4.77
2022-09-17T02:58:07.250Z,4.10
2022-09-17T03:00:35.996Z,3.10
2022-09-17T03:03:09.195Z,4.80
2022-09-17T03:05:38.223Z,5.00
2022-09-17T03:08:09.350Z,3.80
2022-09-17T03:10:37.634Z,2.40
2022-09-17T03:13:05.913Z,2.53
2022-09-17T03:15:36.754Z,3.77
2022-09-17T03:18:06.940Z,2.37
2022-09-17T03:20:35.148Z,5.37
2022-09-17T03:23:03.357Z,4.00
2022-09-17T03:25:31.693Z,6.50
2022-09-17T03:27:59.897Z,4.97
2022-09-17T03:30:28.110Z,2.70
2022-09-17T03:32:56.321Z,5.30
2022-09-17T03:35:25.913Z,4.70
2022-09-17T03:37:54.097Z,5.40
2022-09-17T03:40:22.346Z,3.73
2022-09-17T03:42:50.844Z,3.00
2022-09-17T03:45:19.090Z,4.70
2022-09-17T03:47:47.342Z,5.47
2022-09-17T03:50:15.572Z,3.60
2022-09-17T03:52:45.987Z,3.23
2022-09-17T03:55:14.173Z,2.73
2022-09-17T03:57:42.387Z,3.33
2022-09-17T04:00:12.488Z,2.40
2022-09-17T04:02:40.876Z,2.90
2022-09-17T04:05:10.151Z,3.13
2022-09-17T04:07:38.381Z,2.83
2022-09-17T04:10:08.835Z,2.60
2022-09-17T04:12:37.043Z,2.77
2022-09-17T04:15:05.395Z,3.87
2022-09-17T04:17:33.936Z,2.13
2022-09-17T04:20:02.219Z,2.47
2022-09-17T04:22:30.740Z,2.73
2022-09-17T04:24:58.957Z,2.40
2022-09-17T04:27:28.579Z,3.17
2022-09-17T04:29:56.750Z,2.93
2022-09-17T04:32:24.923Z,2.43
2022-09-17T04:34:53.079Z,2.97
2022-09-17T04:37:21.830Z,2.40
2022-09-17T04:39:50.019Z,2.37
2022-09-17T04:42:18.313Z,2.13
2022-09-17T04:44:47.860Z,2.30
2022-09-17T04:47:16.093Z,2.63
2022-09-17T04:49:44.405Z,2.57
2022-09-17T04:52:12.598Z,2.80
2022-09-17T04:54:40.851Z,2.50
2022-09-17T04:57:09.050Z,2.40
2022-09-17T04:59:37.386Z,2.60
2022-09-17T05:02:07.023Z,2.50
2022-09-17T05:04:35.359Z,3.70
2022-09-17T05:07:04.071Z,3.23
2022-09-17T05:09:32.273Z,3.93
2022-09-17T05:12:00.450Z,3.20
2022-09-17T05:14:28.791Z,3.53
2022-09-17T05:16:56.995Z,3.00
2022-09-17T05:19:26.586Z,2.50
2022-09-17T05:21:54.826Z,2.53
2022-09-17T05:24:23.040Z,2.37
2022-09-17T05:26:51.195Z,2.73
2022-09-17T05:29:19.394Z,2.93
2022-09-17T05:31:47.651Z,2.70
2022-09-17T05:34:16.050Z,3.13
2022-09-17T05:36:45.593Z,3.20
2022-09-17T05:39:13.828Z,2.80
2022-09-17T05:41:41.986Z,2.97
2022-09-17T05:44:11.393Z,2.63
2022-09-17T05:46:41.383Z,2.80
2022-09-17T05:49:09.653Z,2.10
2022-09-17T05:51:38.118Z,2.23
2022-09-17T05:54:08.253Z,2.57
2022-09-17T05:56:36.657Z,3.03
2022-09-17T05:59:04.981Z,2.83
2022-09-17T06:01:35.283Z,2.50
2022-09-17T06:04:04.717Z,2.40
2022-09-17T06:06:32.929Z,3.03
2022-09-17T06:09:01.177Z,2.77
2022-09-17T06:11:31.821Z,4.13
2022-09-17T06:14:00.196Z,2.20
2022-09-17T06:16:29.158Z,3.20
2022-09-17T06:18:57.614Z,3.10
2022-09-17T06:21:25.798Z,4.13
2022-09-17T06:23:54.176Z,4.10
2022-09-17T06:26:22.388Z,3.30
2022-09-17T06:28:51.956Z,3.67
2022-09-17T06:31:21.233Z,2.80
2022-09-17T06:33:49.482Z,4.40
2022-09-17T06:36:17.698Z,2.93
2022-09-17T06:38:47.029Z,3.70
2022-09-17T06:41:16.986Z,2.90
2022-09-17T06:43:45.406Z,4.27
2022-09-17T06:46:15.075Z,3.07
2022-09-17T06:48:43.294Z,2.97
2022-09-17T06:51:12.580Z,3.10
2022-09-17T06:53:41.059Z,2.50
2022-09-17T06:56:10.066Z,2.30
2022-09-17T06:58:38.781Z,2.27
2022-09-17T07:01:07.289Z,2.93
2022-09-17T07:03:37.323Z,2.73
2022-09-17T07:06:09.041Z,3.20
2022-09-17T07:08:37.796Z,2.50
2022-09-17T07:11:06.061Z,3.90
2022-09-17T07:13:34.406Z,3.70
2022-09-17T07:16:03.638Z,3.70
2022-09-17T07:18:31.870Z,2.83
2022-09-17T07:21:01.916Z,3.13
2022-09-17T07:23:31.068Z,3.60
2022-09-17T07:26:00.381Z,3.30
2022-09-17T07:28:29.787Z,4.43
2022-09-17T07:30:58.811Z,3.40
2022-09-17T07:33:27.989Z,4.23
2022-09-17T07:35:56.786Z,4.53
2022-09-17T07:38:26.790Z,3.63
2022-09-17T07:40:58.013Z,3.47
2022-09-17T07:43:26.641Z,3.10
2022-09-17T07:45:54.840Z,4.20
2022-09-17T07:48:23.432Z,5.13
2022-09-17T07:50:51.872Z,3.40
2022-09-17T07:53:20.296Z,4.37
2022-09-17T07:55:54.398Z,3.17
2022-09-17T07:58:22.795Z,3.00
2022-09-17T08:00:51.015Z,3.30
2022-09-17T08:03:19.246Z,4.33
2022-09-17T08:05:48.332Z,2.43
2022-09-17T08:08:21.132Z,3.70
2022-09-17T08:10:49.644Z,3.33
2022-09-17T08:13:19.238Z,2.70
2022-09-17T08:15:47.787Z,1.97
2022-09-17T08:18:18.703Z,3.73
2022-09-17T08:20:49.037Z,3.17
2022-09-17T08:23:17.239Z,2.47
2022-09-17T08:25:45.468Z,2.70
2022-09-17T08:28:13.678Z,2.87
2022-09-17T08:30:43.258Z,3.93
2022-09-17T08:33:11.504Z,3.20
2022-09-17T08:35:39.686Z,3.27
2022-09-17T08:38:08.417Z,3.23
2022-09-17T08:40:43.017Z,2.50
2022-09-17T08:43:13.556Z,2.17
2022-09-17T08:45:43.209Z,2.93
2022-09-17T08:48:13.492Z,2.30
2022-09-17T08:50:42.638Z,1.70
2022-09-17T08:53:15.367Z,2.60
2022-09-17T08:55:45.311Z,1.70
2022-09-17T08:58:27.170Z,2.43
2022-09-17T09:00:59.865Z,1.80
2022-09-17T09:03:34.536Z,2.43
2022-09-17T09:06:07.257Z,1.47
2022-09-17T09:08:39.578Z,1.60
2022-09-17T09:11:08.801Z,1.97
2022-09-17T09:13:38.522Z,2.50
2022-09-17T09:16:12.893Z,2.20
2022-09-17T09:18:42.372Z,1.57
2022-09-17T09:21:17.973Z,0.83
2022-09-17T09:23:50.620Z,2.60
2022-09-17T09:26:19.983Z,2.50
2022-09-17T09:28:54.081Z,1.80
2022-09-17T09:31:29.665Z,2.67
2022-09-17T09:33:59.041Z,1.50
2022-09-17T09:36:29.822Z,1.70
2022-09-17T09:38:59.643Z,2.90
2022-09-17T09:41:30.375Z,1.60
2022-09-17T09:44:04.676Z,1.70
2022-09-17T09:46:41.106Z,1.23
2022-09-17T09:49:13.214Z,1.40
2022-09-17T09:51:46.774Z,1.50
2022-09-17T09:54:21.594Z,1.53
2022-09-17T09:56:55.137Z,1.50
2022-09-17T09:59:23.526Z,1.80
2022-09-17T10:01:53.487Z,1.27
2022-09-17T10:04:23.640Z,1.33
2022-09-17T10:06:53.178Z,1.10
2022-09-17T10:09:22.494Z,1.10
2022-09-17T10:12:08.470Z,0.90
2022-09-17T10:14:37.454Z,1.40
2022-09-17T10:17:23.317Z,1.20
2022-09-17T10:20:17.252Z,2.30
2022-09-17T10:22:48.304Z,1.50
2022-09-17T10:25:26.430Z,2.10
2022-09-17T10:27:54.876Z,1.10
2022-09-17T10:30:29.039Z,1.90
2022-09-17T10:33:17.409Z,1.80
2022-09-17T10:35:56.205Z,1.07
2022-09-17T10:38:29.365Z,1.30
2022-09-17T10:41:13.307Z,1.07
2022-09-17T10:43:41.768Z,2.10
2022-09-17T10:46:11.677Z,1.53
2022-09-17T10:48:43.734Z,1.87
2022-09-17T10:51:12.721Z,1.10
2022-09-17T10:53:58.347Z,1.53
2022-09-17T10:56:30.097Z,1.40
2022-09-17T10:59:01.369Z,0.90
2022-09-17T11:01:36.991Z,0.83
2022-09-17T11:04:29.125Z,1.03
2022-09-17T11:07:23.988Z,1.20
2022-09-17T11:10:01.191Z,0.97
2022-09-17T11:12:41.985Z,1.10
2022-09-17T11:15:19.980Z,0.80
2022-09-17T11:17:59.231Z,1.43
2022-09-17T11:20:33.362Z,1.90
2022-09-17T11:23:09.689Z,1.20
2022-09-17T11:25:46.917Z,1.23
2022-09-17T11:28:23.249Z,1.70
2022-09-17T11:30:58.364Z,1.13
2022-09-17T11:33:44.606Z,2.37
2022-09-17T11:36:15.098Z,1.00
2022-09-17T11:38:50.865Z,1.10
2022-09-17T11:41:21.148Z,1.00
2022-09-17T11:43:50.988Z,2.50
2022-09-17T11:46:22.644Z,1.33
2022-09-17T11:48:54.777Z,1.00
2022-09-17T11:51:27.661Z,0.87
2022-09-17T11:53:59.821Z,1.50
2022-09-17T11:56:31.061Z,1.83
2022-09-17T11:59:03.931Z,1.53
2022-09-17T12:01:36.968Z,2.80
2022-09-17T12:04:12.575Z,1.13
2022-09-17T12:06:44.183Z,1.73
2022-09-17T12:09:15.766Z,1.97
2022-09-17T12:11:47.462Z,1.00
2022-09-17T12:14:18.386Z,1.10
2022-09-17T12:16:47.428Z,1.10
2022-09-17T12:19:25.363Z,1.20
2022-09-17T12:21:56.268Z,1.73
2022-09-17T12:24:27.161Z,1.70
2022-09-17T12:26:59.171Z,1.60
2022-09-17T12:29:40.325Z,1.20
2022-09-17T12:32:19.714Z,1.30
2022-09-17T12:34:53.483Z,2.13
2022-09-17T12:37:24.878Z,1.20
2022-09-17T12:40:08.971Z,1.20
2022-09-17T12:42:45.381Z,1.70
2022-09-17T12:45:34.854Z,1.47
2022-09-17T12:48:18.543Z,2.83
2022-09-17T12:50:55.155Z,1.40
2022-09-17T12:53:29.419Z,1.43
2022-09-17T12:56:04.206Z,1.83
2022-09-17T12:58:41.182Z,4.23
2022-09-17T13:01:14.104Z,5.27
2022-09-17T13:03:44.496Z,0.80
2022-09-17T13:06:32.384Z,1.70
2022-09-17T13:09:30.946Z,2.00
2022-09-17T13:12:05.770Z,1.63
2022-09-17T13:14:52.142Z,2.37
2022-09-17T13:17:26.331Z,1.33
2022-09-17T13:19:59.446Z,1.53
2022-09-17T13:22:29.426Z,0.90
2022-09-17T13:25:04.010Z,1.40
2022-09-17T13:27:35.403Z,0.90
2022-09-17T13:30:03.794Z,1.17
2022-09-17T13:32:48.601Z,1.50
2022-09-17T13:35:35.574Z,1.10
2022-09-17T13:38:04.470Z,1.30
2022-09-17T13:40:34.324Z,1.00
2022-09-17T13:43:10.084Z,1.07
2022-09-17T13:45:58.367Z,1.10
2022-09-17T13:48:28.246Z,1.17
2022-09-17T13:50:57.075Z,0.90
2022-09-17T13:53:27.260Z,1.10
2022-09-17T13:55:56.910Z,1.00
2022-09-17T13:58:27.877Z,0.93
2022-09-17T14:00:57.154Z,0.70
2022-09-17T14:03:44.713Z,0.87
2022-09-17T14:06:31.614Z,1.37
2022-09-17T14:09:03.297Z,0.93
2022-09-17T14:11:39.119Z,1.10
2022-09-17T14:14:22.192Z,0.80
2022-09-17T14:16:51.807Z,0.70
2022-09-17T14:19:28.603Z,1.00
2022-09-17T14:22:01.497Z,0.60
2022-09-17T14:24:34.035Z,0.90
2022-09-17T14:27:10.027Z,1.10
2022-09-17T14:29:49.806Z,1.07
2022-09-17T14:32:23.531Z,1.33
2022-09-17T14:34:51.811Z,0.80
2022-09-17T14:37:24.798Z,1.20
2022-09-17T14:39:54.114Z,1.10
2022-09-17T14:42:24.206Z,1.57
2022-09-17T14:44:56.421Z,1.30
2022-09-17T14:47:26.922Z,1.63
2022-09-17T14:49:55.298Z,0.90
2022-09-17T14:52:27.662Z,1.30
2022-09-17T14:55:11.729Z,1.40
2022-09-17T14:57:40.222Z,1.70
2022-09-17T15:00:18.204Z,1.10
2022-09-17T15:02:52.071Z,1.30
2022-09-17T15:05:22.673Z,1.13
2022-09-17T15:07:52.048Z,1.40
2022-09-17T15:10:21.246Z,1.10
2022-09-17T15:12:50.539Z,1.13
2022-09-17T15:15:21.787Z,1.27
2022-09-17T15:17:53.818Z,1.43
2022-09-17T15:20:23.057Z,1.60
2022-09-17T15:22:54.248Z,1.50
2022-09-17T15:25:23.961Z,2.03
2022-09-17T15:27:53.573Z,1.20
2022-09-17T15:30:22.676Z,1.50
2022-09-17T15:32:51.582Z,1.20
2022-09-17T15:35:22.761Z,1.50
2022-09-17T15:38:18.530Z,1.40
2022-09-17T15:40:42.038Z,1.50
2022-09-17T15:43:18.579Z,0.90
2022-09-17T15:45:46.831Z,1.43
2022-09-17T15:48:24.098Z,1.60
2022-09-17T15:50:54.473Z,0.90
2022-09-17T15:53:24.937Z,1.83
2022-09-17T15:56:09.430Z,1.67
2022-09-17T15:58:38.733Z,1.27
2022-09-17T16:01:40.522Z,1.20
2022-09-17T16:04:38.868Z,1.20
2022-09-17T16:07:28.144Z,0.97
2022-09-17T16:10:15.474Z,1.50
2022-09-17T16:12:43.981Z,1.30
2022-09-17T16:15:12.321Z,1.90
2022-09-17T16:17:44.994Z,1.37
2022-09-17T16:20:17.528Z,1.20
2022-09-17T16:22:48.078Z,1.33
2022-09-17T16:25:18.483Z,1.60
2022-09-17T16:27:49.898Z,1.40
2022-09-17T16:30:19.078Z,1.20
2022-09-17T16:32:47.633Z,1.80
2022-09-17T16:35:17.627Z,1.57
2022-09-17T16:37:46.381Z,1.70
2022-09-17T16:40:14.799Z,1.63
2022-09-17T16:42:44.486Z,1.83
2022-09-17T16:45:12.893Z,1.70
2022-09-17T16:47:42.129Z,2.07
2022-09-17T16:50:11.989Z,1.47
2022-09-17T16:52:40.201Z,2.00
2022-09-17T16:55:08.940Z,1.17
2022-09-17T16:57:37.205Z,1.83
2022-09-17T17:00:08.951Z,1.40
2022-09-17T17:02:37.235Z,1.90
2022-09-17T17:05:05.656Z,3.23
2022-09-17T17:07:33.974Z,1.53
2022-09-17T17:10:03.376Z,1.73
2022-09-17T17:12:31.888Z,2.17
2022-09-17T17:15:01.108Z,1.13
2022-09-17T17:17:30.976Z,1.67
2022-09-17T17:19:59.298Z,0.87
2022-09-17T17:22:27.614Z,1.93
2022-09-17T17:24:56.455Z,1.57
2022-09-17T17:27:25.346Z,1.77
2022-09-17T17:29:53.522Z,1.23
2022-09-17T17:32:21.944Z,2.40
2022-09-17T17:34:51.489Z,1.30
2022-09-17T17:37:20.326Z,1.60
2022-09-17T17:39:48.741Z,1.20
2022-09-17T17:42:16.976Z,1.37
2022-09-17T17:44:45.165Z,1.77
2022-09-17T17:47:13.511Z,2.37
2022-09-17T17:49:41.774Z,1.60
2022-09-17T17:52:11.486Z,1.50
2022-09-17T17:54:39.687Z,1.77
2022-09-17T17:57:07.999Z,1.80
2022-09-17T17:59:36.194Z,2.10
2022-09-17T18:02:04.897Z,1.83
2022-09-17T18:04:33.302Z,1.70
2022-09-17T18:07:01.477Z,1.60
2022-09-17T18:09:31.156Z,1.47
2022-09-17T18:11:59.337Z,1.80
2022-09-17T18:14:27.523Z,1.63
2022-09-17T18:16:55.803Z,1.57
2022-09-17T18:19:24.037Z,2.57
2022-09-17T18:21:52.281Z,1.70
2022-09-17T18:24:21.046Z,1.27
2022-09-17T18:26:50.638Z,2.27
2022-09-17T18:29:18.862Z,1.23
2022-09-17T18:31:47.184Z,1.40
2022-09-17T18:34:16.649Z,2.27
2022-09-17T18:36:50.767Z,2.17
2022-09-17T18:42:10.706Z,2.17
2022-09-17T18:44:38.946Z,2.80
2022-09-17T18:47:07.366Z,1.70
2022-09-17T18:49:35.633Z,1.90
2022-09-17T18:52:04.098Z,1.90
2022-09-17T18:54:32.275Z,2.30
2022-09-17T18:57:00.470Z,1.40
2022-09-17T18:59:30.006Z,1.83
2022-09-17T19:01:58.232Z,1.63
2022-09-17T19:04:26.811Z,1.60
2022-09-17T19:06:54.990Z,1.30
2022-09-17T19:09:23.210Z,2.70
2022-09-17T19:11:51.382Z,1.80
2022-09-17T19:14:19.569Z,2.00
2022-09-17T19:16:49.138Z,2.43
2022-09-17T19:19:17.329Z,2.40
2022-09-17T19:21:45.589Z,1.53
2022-09-17T19:24:13.784Z,1.30
2022-09-17T19:26:41.977Z,2.00
2022-09-17T19:29:11.522Z,1.73
2022-09-17T19:31:39.799Z,1.70
2022-09-17T19:34:09.370Z,3.00
2022-09-17T19:36:37.587Z,2.00
2022-09-17T19:39:15.253Z,1.90
2022-09-17T19:41:43.450Z,2.13
2022-09-17T19:44:11.777Z,2.20
2022-09-17T19:46:40.104Z,3.07
2022-09-17T19:49:10.792Z,4.00
2022-09-17T19:51:39.119Z,2.30
2022-09-17T19:54:09.498Z,2.20
2022-09-17T19:56:37.732Z,2.17
2022-09-17T19:59:06.082Z,1.80
2022-09-17T20:01:35.021Z,1.70
2022-09-17T20:04:03.683Z,2.20
2022-09-17T20:06:33.946Z,1.97
2022-09-17T20:09:02.189Z,2.40
2022-09-17T20:11:30.407Z,2.50
2022-09-17T20:13:59.217Z,1.60
2022-09-17T20:16:27.558Z,1.90
2022-09-17T20:18:55.826Z,2.20
2022-09-17T20:21:25.376Z,1.30
2022-09-17T20:23:55.249Z,1.57
2022-09-17T20:26:23.632Z,2.00
2022-09-17T20:28:52.508Z,1.50
2022-09-17T20:31:21.645Z,2.07
2022-09-17T20:33:49.929Z,1.67
2022-09-17T20:36:19.839Z,2.03
2022-09-17T20:41:38.873Z,1.80
2022-09-17T20:44:08.131Z,3.10
2022-09-17T20:46:36.330Z,3.97
2022-09-17T20:49:05.329Z,3.00
2022-09-17T20:51:33.971Z,3.40
2022-09-17T20:54:02.781Z,2.90
2022-09-17T20:56:32.997Z,2.37
2022-09-17T20:59:08.551Z,1.83
2022-09-17T21:01:37.811Z,3.40
2022-09-17T21:04:07.149Z,2.90
2022-09-17T21:06:36.136Z,2.90
2022-09-17T21:09:05.758Z,3.60
2022-09-17T21:11:34.147Z,3.10
2022-09-17T21:14:03.754Z,3.30
2022-09-17T21:16:32.125Z,3.03
2022-09-17T21:19:01.354Z,2.90
2022-09-17T21:21:29.831Z,3.30
2022-09-17T21:24:01.299Z,3.10
2022-09-17T21:26:29.492Z,2.83
2022-09-17T21:28:58.293Z,2.90
2022-09-17T21:31:32.436Z,3.40
2022-09-17T21:34:01.993Z,2.30
2022-09-17T21:36:31.086Z,2.13
2022-09-17T21:39:00.294Z,2.67
2022-09-17T21:41:28.637Z,3.20
2022-09-17T21:43:56.961Z,2.93
2022-09-17T21:46:25.753Z,1.87
2022-09-17T21:48:56.179Z,3.03
2022-09-17T21:51:25.410Z,2.57
2022-09-17T21:53:54.812Z,2.73
2022-09-17T21:56:23.569Z,3.20
2022-09-17T21:58:53.744Z,2.90
2022-09-17T22:01:23.230Z,3.20
2022-09-17T22:03:51.646Z,3.50
2022-09-17T22:06:22.413Z,3.93
2022-09-17T22:08:51.315Z,3.93
2022-09-17T22:11:20.682Z,3.90
2022-09-17T22:13:53.128Z,4.13
2022-09-17T22:16:21.389Z,3.57
2022-09-17T22:18:50.564Z,3.10
2022-09-17T22:21:20.982Z,2.17
2022-09-17T22:23:50.642Z,3.20
2022-09-17T22:26:19.301Z,2.33
2022-09-17T22:28:47.750Z,5.27
2022-09-17T22:31:16.012Z,2.60
2022-09-17T22:33:45.014Z,2.80
2022-09-17T22:36:14.230Z,3.67
2022-09-17T22:38:42.469Z,2.57
2022-09-17T22:41:14.769Z,2.90
2022-09-17T22:43:42.965Z,2.73
2022-09-17T22:46:12.871Z,2.30
2022-09-17T22:48:41.166Z,2.63
2022-09-17T22:51:09.761Z,2.50
2022-09-17T22:53:38.502Z,2.23
2022-09-17T22:56:07.274Z,2.33
2022-09-17T22:58:36.913Z,2.07
2022-09-17T23:01:05.989Z,2.47
2022-09-17T23:03:34.384Z,2.90
2022-09-17T23:06:03.056Z,1.97
2022-09-17T23:08:31.310Z,2.33
2022-09-17T23:10:59.902Z,2.60
2022-09-17T23:13:28.401Z,3.03
2022-09-17T23:16:02.658Z,3.43
2022-09-17T23:18:31.118Z,3.10
2022-09-17T23:21:00.287Z,4.20
2022-09-17T23:23:28.888Z,3.80
2022-09-17T23:25:57.341Z,3.37
2022-09-17T23:28:25.629Z,2.80
2022-09-17T23:30:53.859Z,3.77
2022-09-17T23:33:23.422Z,3.63
2022-09-17T23:35:51.596Z,4.57
2022-09-17T23:38:19.786Z,2.70
2022-09-17T23:40:47.969Z,3.17
2022-09-17T23:43:16.253Z,3.73
2022-09-17T23:45:44.469Z,3.40
2022-09-17T23:48:12.668Z,2.23
2022-09-17T23:50:42.202Z,3.03
2022-09-17T23:53:10.380Z,3.57
2022-09-17T23:55:38.562Z,2.40
2022-09-17T23:58:07.865Z,2.93
